Time;durP1;ratioP1;P1;durP2;ratioP2;P2;SDS_P1;SDS_P2;PMS_P1;PMS_P2;Temp;Humidity;BMP_temperature;BMP_pressure;BME280_temperature;BME280_humidity;BME280_pressure;Samples;Min_cycle;Max_cycle;Signal;HPM_P1;HPM_P2
2023/05/19 00:01:07;;;;;;;7.90;3.90;;;;;;;7.77;100.00;102944.88;5010797;28;20194;-73
2023/05/19 00:03:36;;;;;;;9.37;4.33;;;;;;;7.94;100.00;102944.31;5025936;28;20918;-73
2023/05/19 00:06:03;;;;;;;8.17;4.03;;;;;;;7.93;100.00;102941.66;5027865;28;20202;-72
2023/05/19 00:08:31;;;;;;;7.10;4.20;;;;;;;7.88;100.00;102940.47;5026011;28;20214;-73
2023/05/19 00:10:57;;;;;;;10.03;4.40;;;;;;;7.90;100.00;102947.44;5027862;28;20198;-72
2023/05/19 00:13:23;;;;;;;7.27;4.57;;;;;;;7.94;100.00;102943.41;5028181;28;20523;-73
2023/05/19 00:15:49;;;;;;;10.27;4.37;;;;;;;7.93;100.00;102944.19;5014343;28;20201;-71
2023/05/19 00:18:16;;;;;;;9.60;4.33;;;;;;;7.84;100.00;102947.03;5010602;28;20308;-73
2023/05/19 00:20:42;;;;;;;5.87;3.63;;;;;;;7.81;100.00;102946.84;5026634;28;20665;-73
2023/05/19 00:23:08;;;;;;;10.47;4.23;;;;;;;7.80;100.00;102947.66;5028340;28;20216;-73
2023/05/19 00:25:33;;;;;;;7.00;3.33;;;;;;;7.80;100.00;102940.00;5024361;28;20194;-73
2023/05/19 00:27:59;;;;;;;6.77;4.30;;;;;;;7.78;100.00;102941.53;5027394;28;20226;-72
2023/05/19 00:30:25;;;;;;;11.03;4.53;;;;;;;7.72;100.00;102947.91;5028566;28;20194;-72
2023/05/19 00:32:50;;;;;;;7.50;3.93;;;;;;;7.78;100.00;102945.78;5009305;28;20182;-73
2023/05/19 00:35:16;;;;;;;8.80;3.97;;;;;;;7.79;100.00;102942.44;5007661;28;20197;-72
2023/05/19 00:37:41;;;;;;;8.97;4.97;;;;;;;7.80;100.00;102941.66;5011525;28;20210;-73
2023/05/19 00:40:09;;;;;;;7.57;3.90;;;;;;;7.73;100.00;102940.38;5009854;28;20716;-72
2023/05/19 00:42:34;;;;;;;9.70;4.27;;;;;;;7.77;100.00;102934.69;5025753;28;20695;-74
2023/05/19 00:45:00;;;;;;;7.47;3.80;;;;;;;7.78;100.00;102936.44;5023849;28;20229;-73
2023/05/19 00:47:25;;;;;;;8.07;3.93;;;;;;;7.70;100.00;102939.31;5025150;28;20226;-72
2023/05/19 00:49:51;;;;;;;8.67;3.73;;;;;;;7.70;100.00;102937.63;5008328;28;20194;-73
2023/05/19 00:52:16;;;;;;;14.33;4.57;;;;;;;7.66;100.00;102943.31;5028029;28;20205;-73
2023/05/19 00:54:43;;;;;;;6.30;4.10;;;;;;;7.75;100.00;102943.91;5039481;28;20191;-73
2023/05/19 00:57:09;;;;;;;11.93;3.80;;;;;;;7.78;100.00;102938.13;5034991;28;20198;-73
2023/05/19 00:59:35;;;;;;;6.87;3.73;;;;;;;7.78;100.00;102935.59;5012375;28;20248;-73
2023/05/19 01:02:01;;;;;;;7.60;3.90;;;;;;;7.77;100.00;102939.78;5011055;28;20193;-72
2023/05/19 01:04:28;;;;;;;9.37;4.43;;;;;;;7.76;100.00;102937.13;5010339;28;20202;-73
2023/05/19 01:06:55;;;;;;;8.63;3.93;;;;;;;7.70;100.00;102935.06;5026987;28;20198;-72
2023/05/19 01:09:21;;;;;;;7.33;3.27;;;;;;;7.70;100.00;102932.50;5006922;28;20210;-72
2023/05/19 01:11:48;;;;;;;10.47;4.07;;;;;;;7.74;100.00;102928.53;5024847;28;20198;-72
2023/05/19 01:14:14;;;;;;;7.60;3.60;;;;;;;7.75;100.00;102935.38;5027756;28;20260;-73
2023/05/19 01:16:46;;;;;;;8.57;4.40;;;;;;;7.77;100.00;102928.69;5004778;28;20202;-73
2023/05/19 01:19:35;;;;;;;10.17;4.17;;;;;;;7.77;100.00;102928.69;5005683;28;20597;-72
2023/05/19 01:22:06;;;;;;;8.17;4.07;;;;;;;7.77;100.00;102937.25;5025860;28;20198;-71
2023/05/19 01:25:10;;;;;;;7.63;3.60;;;;;;;7.77;100.00;102937.25;5022087;28;20224;-73
2023/05/19 01:27:48;;;;;;;8.20;3.90;;;;;;;7.84;100.00;102931.72;5011744;28;20226;-71
2023/05/19 01:30:37;;;;;;;12.60;4.60;;;;;;;7.93;100.00;102939.97;5018276;28;20190;-72
2023/05/19 01:33:07;;;;;;;9.13;4.17;;;;;;;7.98;100.00;102936.06;5012285;28;20557;-72
2023/05/19 01:35:35;;;;;;;13.40;3.70;;;;;;;8.03;100.00;102934.69;5007355;28;20187;-73
2023/05/19 01:38:02;;;;;;;11.63;4.43;;;;;;;8.13;100.00;102934.47;5025240;28;20238;-73
2023/05/19 01:40:29;;;;;;;13.97;4.40;;;;;;;8.16;100.00;102932.09;5012431;28;20190;-72
2023/05/19 01:42:58;;;;;;;13.87;4.97;;;;;;;8.21;100.00;102930.72;5021116;28;20258;-72
2023/05/19 01:45:26;;;;;;;12.53;4.20;;;;;;;8.24;100.00;102938.59;5017498;28;20191;-73
2023/05/19 01:47:55;;;;;;;9.80;4.43;;;;;;;8.24;100.00;102933.50;5014453;28;20221;-73
2023/05/19 01:50:21;;;;;;;12.17;4.50;;;;;;;8.25;100.00;102945.44;5025617;28;20686;-73
2023/05/19 01:52:48;;;;;;;9.23;4.03;;;;;;;8.27;100.00;102943.00;5010019;28;20183;-73
2023/05/19 01:55:14;;;;;;;8.40;3.47;;;;;;;8.31;100.00;102940.75;5030264;28;20277;-74
2023/05/19 01:57:42;;;;;;;12.43;4.33;;;;;;;8.30;100.00;102945.75;5014091;28;20217;-72
2023/05/19 02:00:29;;;;;;;12.30;3.93;;;;;;;8.27;100.00;102945.56;5011710;28;20194;-72
2023/05/19 02:03:01;;;;;;;11.47;4.43;;;;;;;8.25;100.00;102944.59;5025684;28;20288;-72
2023/05/19 02:05:35;;;;;;;9.60;4.10;;;;;;;8.25;100.00;102940.34;5028957;28;20194;-72
2023/05/19 02:08:09;;;;;;;9.30;4.33;;;;;;;8.27;100.00;102943.00;5029265;28;20717;-73
2023/05/19 02:10:39;;;;;;;10.30;4.20;;;;;;;8.30;100.00;102938.97;5013531;28;20194;-72
2023/05/19 02:13:10;;;;;;;13.90;4.90;;;;;;;8.37;100.00;102946.22;5009358;28;20187;-72
2023/05/19 02:15:41;;;;;;;8.93;4.20;;;;;;;8.39;100.00;102943.78;5017074;28;20203;-73
2023/05/19 02:18:10;;;;;;;9.10;4.20;;;;;;;8.36;100.00;102947.03;5012892;28;20220;-72
2023/05/19 02:20:37;;;;;;;13.90;4.60;;;;;;;8.33;100.00;102940.81;5012012;28;20285;-73
2023/05/19 02:23:05;;;;;;;8.40;4.13;;;;;;;8.30;100.00;102940.66;5044347;28;20218;-72
2023/05/19 02:25:31;;;;;;;10.70;4.00;;;;;;;8.26;100.00;102938.69;5020512;28;20204;-72
2023/05/19 02:27:58;;;;;;;8.83;3.83;;;;;;;8.26;100.00;102944.69;5026097;28;20218;-73
2023/05/19 02:30:24;;;;;;;10.53;4.10;;;;;;;8.23;100.00;102941.03;5010553;28;20526;-72
2023/05/19 02:32:49;;;;;;;7.97;3.83;;;;;;;8.20;100.00;102935.75;5029370;28;20197;-72
2023/05/19 02:35:15;;;;;;;11.27;4.70;;;;;;;8.15;100.00;102935.44;5028265;28;20233;-71
2023/05/19 02:37:40;;;;;;;9.43;4.27;;;;;;;8.15;100.00;102937.13;5027549;28;20214;-72
2023/05/19 02:40:07;;;;;;;11.10;4.10;;;;;;;8.06;100.00;102939.97;5029620;28;20198;-73
2023/05/19 02:42:32;;;;;;;12.40;4.90;;;;;;;8.07;100.00;102936.63;5030268;28;20218;-72
2023/05/19 02:44:58;;;;;;;11.30;4.90;;;;;;;8.06;100.00;102934.84;5054694;28;20209;-72
2023/05/19 02:47:24;;;;;;;12.33;4.37;;;;;;;8.03;100.00;102929.59;5012722;28;20655;-72
2023/05/19 02:49:49;;;;;;;9.63;4.17;;;;;;;8.02;100.00;102926.94;5010783;28;20195;-71
2023/05/19 02:52:15;;;;;;;11.07;4.50;;;;;;;7.98;100.00;102920.75;5012038;28;20202;-72
2023/05/19 02:54:40;;;;;;;13.70;6.07;;;;;;;7.97;100.00;102918.09;5014116;28;20256;-72
2023/05/19 02:57:06;;;;;;;15.30;4.93;;;;;;;7.94;100.00;102921.34;5027660;28;20273;-72
2023/05/19 02:59:31;;;;;;;15.43;5.67;;;;;;;7.93;100.00;102921.25;5029400;28;20647;-72
2023/05/19 03:02:00;;;;;;;12.87;5.30;;;;;;;7.91;100.00;102922.81;5007695;28;20222;-72
2023/05/19 03:04:26;;;;;;;12.90;5.57;;;;;;;7.91;100.00;102921.16;5009720;28;20194;-71
2023/05/19 03:06:52;;;;;;;12.63;5.30;;;;;;;7.92;100.00;102911.84;5009631;28;20202;-72
2023/05/19 03:09:18;;;;;;;12.37;4.90;;;;;;;7.91;100.00;102912.59;5010147;28;20313;-72
2023/05/19 03:11:44;;;;;;;14.20;5.23;;;;;;;7.88;100.00;102915.84;5032615;28;20676;-72
2023/05/19 03:14:09;;;;;;;11.13;4.80;;;;;;;7.91;100.00;102915.16;5010436;28;20216;-72
2023/05/19 03:16:35;;;;;;;9.07;4.47;;;;;;;7.91;100.00;102910.03;5046091;28;20567;-72
2023/05/19 03:19:00;;;;;;;13.40;5.13;;;;;;;7.91;100.00;102916.03;5027818;28;20218;-71
2023/05/19 03:21:26;;;;;;;13.30;5.40;;;;;;;7.94;100.00;102918.81;5009904;28;20190;-72
2023/05/19 03:23:52;;;;;;;8.30;4.80;;;;;;;7.92;100.00;102909.28;5006674;28;20292;-72
2023/05/19 03:26:17;;;;;;;8.43;5.00;;;;;;;7.89;100.00;102912.53;5026193;28;20197;-71
2023/05/19 03:28:43;;;;;;;10.53;4.80;;;;;;;7.90;100.00;102913.38;5011566;28;20709;-72
2023/05/19 03:31:08;;;;;;;9.93;4.57;;;;;;;7.89;100.00;102920.19;5029331;28;20678;-72
2023/05/19 03:33:37;;;;;;;13.63;4.90;;;;;;;7.92;100.00;102922.03;5009972;28;20721;-72
2023/05/19 03:36:03;;;;;;;15.40;5.13;;;;;;;7.91;100.00;102923.69;5045798;28;20194;-72
2023/05/19 03:38:33;;;;;;;12.50;5.00;;;;;;;7.93;100.00;102916.16;5010838;28;20210;-72
2023/05/19 03:40:59;;;;;;;12.63;5.47;;;;;;;7.96;100.00;102923.97;5011278;28;20686;-72
2023/05/19 03:43:24;;;;;;;12.63;5.67;;;;;;;7.97;100.00;102921.53;5009127;28;20214;-72
2023/05/19 03:45:55;;;;;;;12.60;5.40;;;;;;;7.99;100.00;102913.97;5009265;28;20205;-72
2023/05/19 03:48:40;;;;;;;11.97;5.87;;;;;;;7.99;100.00;102919.97;5025591;28;20710;-72
2023/05/19 03:51:28;;;;;;;11.53;5.63;;;;;;;7.99;100.00;102914.88;5029232;28;20202;-70
2023/05/19 03:53:58;;;;;;;15.37;6.30;;;;;;;8.02;100.00;102920.13;4994704;28;20313;-72
2023/05/19 03:56:26;;;;;;;11.13;5.90;;;;;;;8.06;100.00;102913.59;4997531;28;20187;-72
2023/05/19 03:58:53;;;;;;;14.87;5.70;;;;;;;8.04;100.00;102920.25;5013936;28;20283;-72
2023/05/19 04:01:19;;;;;;;14.43;5.47;;;;;;;8.08;100.00;102914.56;5011103;28;20221;-72
2023/05/19 04:03:45;;;;;;;13.83;5.93;;;;;;;8.13;100.00;102918.25;5013805;28;20700;-73
2023/05/19 04:06:11;;;;;;;17.53;5.27;;;;;;;8.15;100.00;102919.25;5037414;28;20293;-74
2023/05/19 04:08:38;;;;;;;13.30;4.93;;;;;;;8.18;100.00;102914.31;5039739;28;20218;-72
2023/05/19 04:11:04;;;;;;;12.43;5.40;;;;;;;8.22;100.00;102927.44;5009010;28;20186;-73
2023/05/19 04:13:31;;;;;;;13.97;5.60;;;;;;;8.26;100.00;102931.03;5006398;28;20233;-72
2023/05/19 04:15:57;;;;;;;10.73;4.40;;;;;;;8.29;100.00;102931.25;5009930;28;20659;-73
2023/05/19 04:18:22;;;;;;;14.67;5.07;;;;;;;8.33;100.00;102931.50;5028414;28;20218;-72
2023/05/19 04:20:48;;;;;;;10.47;5.47;;;;;;;8.38;100.00;102930.13;5020323;28;20277;-72
2023/05/19 04:23:13;;;;;;;10.97;5.07;;;;;;;8.43;100.00;102931.28;5014655;28;20585;-72
2023/05/19 04:25:40;;;;;;;16.07;5.30;;;;;;;8.46;100.00;102928.94;4995814;28;20224;-73
2023/05/19 04:28:06;;;;;;;12.83;4.77;;;;;;;8.53;100.00;102935.28;5042066;28;20218;-72
2023/05/19 04:30:33;;;;;;;8.63;5.03;;;;;;;8.60;100.00;102935.75;5002150;28;20193;-71
2023/05/19 04:32:59;;;;;;;13.73;5.23;;;;;;;8.68;100.00;102934.56;5006877;28;20198;-72
2023/05/19 04:35:26;;;;;;;9.00;4.13;;;;;;;8.72;100.00;102933.06;5013462;28;20631;-72
2023/05/19 04:37:54;;;;;;;13.43;4.50;;;;;;;8.80;100.00;102944.63;5005493;28;20215;-73
2023/05/19 04:40:26;;;;;;;9.47;5.00;;;;;;;8.88;100.00;102939.16;5002367;28;20199;-73
2023/05/19 04:42:52;;;;;;;9.33;4.23;;;;;;;8.93;100.00;102945.44;5024301;28;20690;-70
2023/05/19 04:45:19;;;;;;;9.37;4.20;;;;;;;8.97;100.00;102947.38;5012095;28;20198;-75
2023/05/19 04:47:47;;;;;;;10.20;3.90;;;;;;;9.03;100.00;102941.75;5009986;28;20218;-72
2023/05/19 04:50:13;;;;;;;12.37;4.40;;;;;;;9.10;100.00;102951.53;5005882;28;20197;-73
2023/05/19 04:52:41;;;;;;;7.80;4.17;;;;;;;9.14;100.00;102946.72;5007488;28;20269;-73
2023/05/19 04:55:07;;;;;;;14.20;4.23;;;;;;;9.23;100.00;102939.59;5007186;28;20209;-73
2023/05/19 04:57:33;;;;;;;8.83;3.93;;;;;;;9.31;100.00;102946.00;5005802;28;20206;-74
2023/05/19 04:59:59;;;;;;;9.33;4.03;;;;;;;9.34;100.00;102942.75;5041572;28;20212;-73
2023/05/19 05:02:28;;;;;;;12.77;4.40;;;;;;;9.40;100.00;102936.31;5014175;28;20254;-75
2023/05/19 05:04:55;;;;;;;14.07;4.53;;;;;;;9.52;100.00;102942.13;4994385;28;20222;-73
2023/05/19 05:07:21;;;;;;;11.17;3.90;;;;;;;9.57;100.00;102927.94;5009798;28;20190;-73
2023/05/19 05:09:47;;;;;;;10.77;3.93;;;;;;;9.67;100.00;102937.03;5010411;28;20329;-73
2023/05/19 05:12:14;;;;;;;11.27;4.00;;;;;;;9.75;100.00;102935.75;5010625;28;20273;-73
2023/05/19 05:14:40;;;;;;;9.53;3.60;;;;;;;9.78;100.00;102933.38;5017515;28;20186;-73
2023/05/19 05:17:08;;;;;;;10.43;4.10;;;;;;;9.82;100.00;102932.75;5013905;28;20195;-73
2023/05/19 05:19:34;;;;;;;10.93;3.93;;;;;;;9.88;100.00;102938.22;5015776;28;20183;-74
2023/05/19 05:22:00;;;;;;;10.80;4.00;;;;;;;9.97;100.00;102937.06;5017169;28;20186;-74
2023/05/19 05:24:26;;;;;;;11.20;3.77;;;;;;;10.07;100.00;102935.91;5042663;28;20587;-73
2023/05/19 05:26:57;;;;;;;7.80;3.37;;;;;;;10.12;100.00;102926.78;5014127;28;20673;-73
2023/05/19 05:29:24;;;;;;;7.93;3.47;;;;;;;10.23;100.00;102923.16;5016778;28;20229;-73
2023/05/19 05:31:49;;;;;;;13.17;4.20;;;;;;;10.31;100.00;102925.31;5013058;28;20194;-73
2023/05/19 05:34:15;;;;;;;11.07;3.83;;;;;;;10.41;100.00;102931.81;5018143;28;20189;-72
2023/05/19 05:36:41;;;;;;;6.60;3.17;;;;;;;10.46;100.00;102931.25;5014054;28;20205;-73
2023/05/19 05:39:07;;;;;;;11.33;3.50;;;;;;;10.57;100.00;102921.56;5013856;28;20276;-72
2023/05/19 05:41:34;;;;;;;6.57;3.40;;;;;;;10.72;100.00;102919.81;5004933;28;20203;-72
2023/05/19 05:44:03;;;;;;;9.10;3.63;;;;;;;10.80;100.00;102913.41;5013669;28;20210;-73
2023/05/19 05:46:29;;;;;;;8.57;3.00;;;;;;;10.90;100.00;102910.50;5013720;28;20234;-73
2023/05/19 05:48:55;;;;;;;11.83;3.50;;;;;;;11.02;100.00;102911.13;5002849;28;20218;-74
2023/05/19 05:51:21;;;;;;;9.57;3.67;;;;;;;11.14;100.00;102904.03;5013345;28;20205;-74
2023/05/19 05:53:51;;;;;;;8.87;2.97;;;;;;;11.32;100.00;102889.56;5031208;28;20221;-73
2023/05/19 05:56:17;;;;;;;10.37;2.80;;;;;;;11.54;100.00;102890.72;5043293;28;20186;-73
2023/05/19 05:58:49;;;;;;;7.70;2.57;;;;;;;11.72;100.00;102881.38;5011697;28;20774;-73
2023/05/19 06:01:16;;;;;;;7.07;2.70;;;;;;;11.84;100.00;102835.72;5013726;28;20191;-74
2023/05/19 06:03:43;;;;;;;14.10;3.10;;;;;;;12.12;100.00;102820.75;5017684;28;20704;-73
2023/05/19 06:06:12;;;;;;;9.30;2.83;;;;;;;12.43;100.00;102805.88;5013474;28;20199;-73
2023/05/19 06:08:38;;;;;;;9.97;3.20;;;;;;;12.54;100.00;102796.94;5011913;28;20264;-73
2023/05/19 06:11:07;;;;;;;10.70;3.00;;;;;;;12.58;100.00;102788.53;5013250;28;20221;-74
2023/05/19 06:13:37;;;;;;;9.03;3.33;;;;;;;12.59;100.00;102772.28;5013021;28;20186;-74
2023/05/19 06:16:06;;;;;;;9.93;2.50;;;;;;;12.72;100.00;102786.56;5014771;28;20965;-73
2023/05/19 06:18:37;;;;;;;8.87;2.87;;;;;;;12.81;100.00;102794.66;5016939;28;20218;-73
2023/05/19 06:21:03;;;;;;;5.90;2.73;;;;;;;12.87;100.00;102751.19;5013044;28;20194;-74
2023/05/19 06:23:29;;;;;;;8.33;2.50;;;;;;;13.06;100.00;102742.53;5029322;28;20217;-74
2023/05/19 06:25:55;;;;;;;8.33;2.40;;;;;;;13.29;100.00;102746.91;5029295;28;20194;-74
2023/05/19 06:28:21;;;;;;;5.10;2.10;;;;;;;13.36;100.00;102685.47;5012783;28;20718;-73
2023/05/19 06:30:48;;;;;;;10.00;3.00;;;;;;;13.50;100.00;102711.69;5013849;28;20214;-74
2023/05/19 06:33:23;;;;;;;7.90;2.30;;;;;;;13.47;100.00;102657.53;5010111;28;20187;-73
2023/05/19 06:35:49;;;;;;;7.03;2.37;;;;;;;13.55;100.00;102640.69;5014953;28;20191;-73
2023/05/19 06:38:14;;;;;;;6.27;2.17;;;;;;;13.80;100.00;102651.91;5017521;28;20213;-74
2023/05/19 06:40:40;;;;;;;7.10;2.90;;;;;;;13.84;100.00;102621.97;5020699;28;20198;-74
2023/05/19 06:43:06;;;;;;;10.33;2.63;;;;;;;13.88;100.00;102645.31;5012236;28;20266;-74
2023/05/19 06:45:50;;;;;;;6.57;2.70;;;;;;;14.06;100.00;102616.75;5012672;28;20213;-74
2023/05/19 06:48:16;;;;;;;5.73;2.40;;;;;;;14.09;100.00;102597.09;5016332;28;20301;-74
2023/05/19 06:50:41;;;;;;;9.10;2.50;;;;;;;14.22;100.00;102563.22;5010096;28;20613;-73
2023/05/19 06:53:06;;;;;;;7.13;2.80;;;;;;;14.24;100.00;102601.94;5015292;28;20194;-74
2023/05/19 06:55:32;;;;;;;5.77;2.50;;;;;;;14.28;100.00;102573.72;5012752;28;20237;-74
2023/05/19 06:57:57;;;;;;;5.50;2.17;;;;;;;14.37;100.00;102576.59;5012110;28;20687;-74
2023/05/19 07:00:23;;;;;;;5.50;2.43;;;;;;;14.49;100.00;102521.97;5009393;28;20202;-74
2023/05/19 07:02:50;;;;;;;5.40;2.10;;;;;;;14.92;100.00;102538.75;5012052;28;20242;-74
2023/05/19 07:05:16;;;;;;;8.90;2.23;;;;;;;15.13;100.00;102476.56;4996281;28;20221;-73
2023/05/19 07:07:45;;;;;;;10.40;2.83;;;;;;;15.42;100.00;102465.34;5010696;28;20252;-72
2023/05/19 07:10:14;;;;;;;9.00;2.30;;;;;;;15.69;100.00;102463.44;5007622;28;20746;-74
2023/05/19 07:12:39;;;;;;;6.40;2.40;;;;;;;15.60;90.11;102396.06;5014122;28;20183;-73
2023/05/19 07:15:06;;;;;;;6.90;2.60;;;;;;;15.82;90.70;102406.94;5010567;28;20219;-74
2023/05/19 07:17:32;;;;;;;8.10;2.67;;;;;;;15.82;93.81;102435.38;5011660;28;20649;-73
2023/05/19 07:19:57;;;;;;;7.43;2.60;;;;;;;16.02;90.00;102410.00;4995596;28;20285;-74
2023/05/19 07:22:23;;;;;;;6.47;2.60;;;;;;;16.03;87.75;102403.97;4995758;28;20574;-73
2023/05/19 07:24:49;;;;;;;5.80;2.30;;;;;;;16.22;84.38;102388.91;5015371;28;20194;-72
2023/05/19 07:27:16;;;;;;;6.77;2.13;;;;;;;16.25;82.49;102385.53;5008318;28;20225;-74
2023/05/19 07:29:41;;;;;;;6.57;2.00;;;;;;;16.46;78.96;102385.97;5029672;28;20210;-73
2023/05/19 07:32:07;;;;;;;8.33;1.97;;;;;;;16.71;83.09;102429.63;5015505;28;20253;-73
2023/05/19 07:34:32;;;;;;;9.40;2.93;;;;;;;16.66;77.42;102403.63;5028137;28;20192;-74
2023/05/19 07:36:58;;;;;;;8.47;2.50;;;;;;;16.75;74.14;102431.41;5011611;28;20269;-75
2023/05/19 07:39:26;;;;;;;4.87;1.90;;;;;;;16.94;70.74;102436.13;5029363;28;20216;-74
2023/05/19 07:41:54;;;;;;;6.63;2.30;;;;;;;16.96;71.93;102450.81;5029144;28;20280;-74
2023/05/19 07:44:20;;;;;;;6.37;2.00;;;;;;;16.97;70.22;102441.31;5027651;28;20218;-75
2023/05/19 07:46:46;;;;;;;7.30;2.23;;;;;;;17.03;68.00;102434.56;5012199;28;20547;-74
2023/05/19 07:49:12;;;;;;;7.47;2.10;;;;;;;17.33;73.37;102468.78;5029168;28;20224;-74
2023/05/19 07:51:37;;;;;;;7.07;2.23;;;;;;;17.68;72.68;102466.84;5027829;28;20277;-73
2023/05/19 07:54:03;;;;;;;7.60;2.17;;;;;;;17.69;67.50;102443.50;5027713;28;20190;-74
2023/05/19 07:56:28;;;;;;;9.43;2.33;;;;;;;17.97;69.10;102455.19;5029246;28;20669;-74
2023/05/19 07:58:54;;;;;;;4.87;1.67;;;;;;;17.97;68.96;102468.16;5028849;28;20691;-74
2023/05/19 08:01:20;;;;;;;6.17;2.20;;;;;;;17.96;62.38;102435.31;5028986;28;20755;-74
2023/05/19 08:03:45;;;;;;;7.37;2.30;;;;;;;17.96;61.27;102441.34;5029187;28;20321;-75
2023/05/19 08:06:11;;;;;;;8.33;2.47;;;;;;;17.98;59.69;102442.28;5028957;28;20238;-75
2023/05/19 08:08:36;;;;;;;3.77;1.77;;;;;;;18.10;59.96;102447.63;5032412;28;20245;-73
2023/05/19 08:11:03;;;;;;;10.63;2.10;;;;;;;18.29;61.02;102461.72;5027999;28;20190;-74
2023/05/19 08:13:29;;;;;;;6.23;1.97;;;;;;;18.68;59.33;102434.59;5015888;28;20190;-74
2023/05/19 08:15:58;;;;;;;3.60;1.80;;;;;;;18.58;56.25;102434.47;5021345;28;20249;-75
2023/05/19 08:18:24;;;;;;;5.00;1.80;;;;;;;18.67;57.59;102487.38;5024157;28;20289;-74
2023/05/19 08:20:50;;;;;;;5.27;2.10;;;;;;;18.51;55.61;102481.97;5014906;28;20617;-75
2023/05/19 08:23:16;;;;;;;4.53;1.73;;;;;;;18.82;58.25;102526.50;5028634;28;20226;-74
2023/05/19 08:25:42;;;;;;;7.23;2.10;;;;;;;18.80;55.43;102491.84;5028174;28;20194;-75
2023/05/19 08:28:07;;;;;;;7.07;2.23;;;;;;;18.64;55.32;102512.41;5027176;28;20728;-75
2023/05/19 08:30:33;;;;;;;5.43;1.63;;;;;;;18.96;55.15;102518.88;5028849;28;20194;-75
2023/05/19 08:32:58;;;;;;;5.33;1.97;;;;;;;18.89;53.37;102522.25;5028690;28;20218;-75
2023/05/19 08:35:24;;;;;;;5.10;2.03;;;;;;;19.30;55.72;102555.69;5026946;28;20217;-75
2023/05/19 08:37:50;;;;;;;4.93;1.90;;;;;;;19.89;55.49;102556.28;5028596;28;20971;-75
2023/05/19 08:40:17;;;;;;;5.40;2.03;;;;;;;19.93;52.76;102532.03;5028630;28;20252;-75
2023/05/19 08:42:44;;;;;;;7.50;2.30;;;;;;;19.93;50.41;102592.75;5028063;28;20207;-75
2023/05/19 08:45:10;;;;;;;6.20;1.70;;;;;;;19.99;50.81;102651.75;5028467;28;20729;-75
2023/05/19 08:47:35;;;;;;;4.43;2.03;;;;;;;19.87;50.52;102657.72;5027568;28;20217;-72
2023/05/19 08:50:11;;;;;;;8.10;2.27;;;;;;;20.00;50.02;102648.31;5028418;28;20206;-72
2023/05/19 08:52:48;;;;;;;4.53;1.60;;;;;;;19.87;48.81;102656.81;5022051;28;22005;-73
2023/05/19 08:55:42;;;;;;;6.80;2.67;;;;;;;19.65;49.92;102679.13;5031867;28;20233;-73
2023/05/19 08:58:10;;;;;;;4.43;1.63;;;;;;;19.92;49.89;102663.84;5026705;28;20222;-72
2023/05/19 09:00:35;;;;;;;6.27;1.70;;;;;;;20.16;50.57;102666.69;5028330;28;20202;-73
2023/05/19 09:03:01;;;;;;;8.17;2.20;;;;;;;19.82;49.67;102655.91;5025455;28;20214;-73
2023/05/19 09:05:27;;;;;;;5.43;1.90;;;;;;;19.79;51.05;102681.88;5028340;28;20190;-73
2023/05/19 09:07:52;;;;;;;4.47;1.87;;;;;;;20.31;51.44;102681.59;5028203;28;20206;-73
2023/05/19 09:10:18;;;;;;;6.20;2.50;;;;;;;20.40;50.59;102653.91;5028155;28;20611;-73
2023/05/19 09:12:46;;;;;;;4.60;1.90;;;;;;;20.53;49.81;102640.13;5028455;28;20205;-73
2023/05/19 09:15:15;;;;;;;6.50;2.20;;;;;;;20.72;48.18;102634.19;5010505;28;20610;-73
2023/05/19 09:17:40;;;;;;;5.20;1.67;;;;;;;20.57;49.46;102657.53;5027987;28;20206;-73
2023/05/19 09:20:10;;;;;;;3.73;1.60;;;;;;;20.88;50.11;102664.69;5027835;28;20206;-73
2023/05/19 09:22:46;;;;;;;3.93;1.73;;;;;;;20.79;50.02;102669.84;5028212;28;20234;-73
2023/05/19 09:25:22;;;;;;;6.43;2.03;;;;;;;20.41;51.04;102667.81;5016515;28;20253;-73
2023/05/19 09:27:49;;;;;;;6.00;2.20;;;;;;;20.81;49.77;102670.72;5027064;28;20222;-73
2023/05/19 09:30:18;;;;;;;4.93;2.10;;;;;;;20.93;50.21;102662.13;5028348;28;20188;-73
2023/05/19 09:32:44;;;;;;;6.47;1.70;;;;;;;21.09;48.26;102624.91;5023468;28;20185;-73
2023/05/19 09:35:11;;;;;;;7.77;2.40;;;;;;;20.96;46.32;102636.13;5028587;28;20205;-73
2023/05/19 09:37:40;;;;;;;5.00;1.67;;;;;;;21.20;48.27;102665.78;5030640;28;20260;-74
2023/05/19 09:40:09;;;;;;;5.63;1.80;;;;;;;21.49;47.94;102664.19;5028400;28;20205;-73
2023/05/19 09:42:39;;;;;;;5.17;1.70;;;;;;;21.44;48.31;102649.38;5028335;28;20281;-73
2023/05/19 09:45:05;;;;;;;11.40;2.00;;;;;;;21.43;46.68;102634.59;5024598;28;20195;-73
2023/05/19 09:47:39;;;;;;;7.60;2.23;;;;;;;21.47;46.53;102634.59;5028020;28;20700;-74
2023/05/19 09:50:09;;;;;;;5.97;1.90;;;;;;;21.54;45.54;102640.72;5025893;28;20256;-74
2023/05/19 09:52:37;;;;;;;5.83;2.20;;;;;;;21.53;45.30;102634.66;5025967;28;20627;-73
2023/05/19 09:55:05;;;;;;;4.80;1.80;;;;;;;22.02;44.98;102633.03;5025531;28;20234;-74
2023/05/19 09:57:35;;;;;;;4.73;1.70;;;;;;;22.13;45.37;102639.13;5028342;28;20328;-74
2023/05/19 10:00:16;;;;;;;3.77;1.70;;;;;;;22.25;45.06;102642.63;5030239;28;20198;-74
2023/05/19 10:02:46;;;;;;;5.43;1.80;;;;;;;22.35;44.64;102626.06;5015589;28;20225;-74
2023/05/19 10:05:19;;;;;;;6.07;1.93;;;;;;;22.37;46.02;102646.13;5031294;28;20206;-72
2023/05/19 10:07:47;;;;;;;4.83;2.03;;;;;;;22.12;43.52;102626.97;5031273;28;20734;-71
2023/05/19 10:10:14;;;;;;;7.00;1.97;;;;;;;22.28;44.57;102653.06;5028013;28;20198;-73
2023/05/19 10:12:40;;;;;;;4.07;1.60;;;;;;;22.14;43.66;102625.22;5031402;28;20202;-74
2023/05/19 10:15:11;;;;;;;5.13;2.33;;;;;;;22.23;41.70;102590.44;5029364;28;20250;-74
2023/05/19 10:17:38;;;;;;;5.07;2.10;;;;;;;22.50;42.64;102614.78;5021379;28;20299;-73
2023/05/19 10:20:09;;;;;;;5.60;2.10;;;;;;;22.85;43.67;102627.81;5029550;28;20599;-73
2023/05/19 10:22:36;;;;;;;5.57;2.07;;;;;;;22.64;43.94;102625.25;5031033;28;20324;-74
2023/05/19 10:25:02;;;;;;;5.57;2.00;;;;;;;22.33;41.96;102596.50;5031357;28;20205;-73
2023/05/19 10:27:29;;;;;;;5.03;1.93;;;;;;;22.42;40.60;102589.53;5032763;28;20194;-73
2023/05/19 10:29:57;;;;;;;5.63;1.93;;;;;;;22.42;43.17;102647.00;5027318;28;20677;-74
2023/05/19 10:32:27;;;;;;;7.13;1.90;;;;;;;22.70;43.77;102673.09;5030646;28;20206;-73
2023/05/19 10:35:01;;;;;;;6.00;2.30;;;;;;;22.54;42.28;102619.16;5030418;28;20237;-69
2023/05/19 10:37:27;;;;;;;6.20;2.20;;;;;;;22.62;40.37;102588.66;5028143;28;20280;-69
2023/05/19 10:39:54;;;;;;;4.57;1.73;;;;;;;22.68;39.69;102588.66;5026379;28;20289;-69
2023/05/19 10:43:01;;;;;;;5.57;1.70;;;;;;;22.84;42.34;102645.22;5026259;28;20241;-69
2023/05/19 10:45:33;;;;;;;5.87;1.90;;;;;;;22.99;40.53;102613.84;5017988;28;20233;-70
2023/05/19 10:47:58;;;;;;;7.10;2.10;;;;;;;22.82;41.86;102633.91;5026039;28;20214;-70
2023/05/19 10:50:25;;;;;;;4.07;1.57;;;;;;;23.19;42.55;102640.81;5024062;28;20810;-70
2023/05/19 10:52:54;;;;;;;4.93;1.73;;;;;;;23.22;41.52;102626.84;5026494;28;20182;-71
2023/05/19 10:55:55;;;;;;;5.23;2.10;;;;;;;23.05;41.15;102589.41;5028414;28;20223;-70
2023/05/19 10:58:48;;;;;;;4.27;1.80;;;;;;;22.93;42.07;102592.91;5032763;28;20237;-71
2023/05/19 11:01:17;;;;;;;6.17;1.80;;;;;;;23.44;41.87;102599.72;5025902;28;20198;-70
2023/05/19 11:03:56;;;;;;;5.43;2.17;;;;;;;23.34;40.39;102566.66;5011213;28;20305;-73
2023/05/19 11:06:39;;;;;;;3.90;1.83;;;;;;;23.22;40.38;102575.44;5033065;28;20214;-72
2023/05/19 11:09:07;;;;;;;3.50;1.53;;;;;;;23.28;40.25;102577.13;5007536;28;20388;-72
2023/05/19 11:11:47;;;;;;;4.03;1.70;;;;;;;23.54;39.54;102560.44;5021230;28;20194;-71
2023/05/19 11:14:16;;;;;;;5.37;1.93;;;;;;;23.15;40.84;102605.03;5026839;28;20281;-72
2023/05/19 11:16:49;;;;;;;5.27;1.67;;;;;;;23.64;41.69;102627.53;5026930;28;20709;-72
2023/05/19 11:19:34;;;;;;;3.83;1.80;;;;;;;23.38;40.33;102587.53;5027076;28;20218;-72
2023/05/19 11:22:11;;;;;;;5.80;1.93;;;;;;;23.63;40.03;102586.53;5025901;28;20194;-72
2023/05/19 11:24:46;;;;;;;4.77;1.70;;;;;;;23.85;40.07;102572.41;5025302;28;20288;-72
2023/05/19 11:27:32;;;;;;;4.90;2.33;;;;;;;23.76;40.86;102590.78;5019665;28;20660;-72